Nampa, ID

11:39 PM MDT on April 22, 2017 (GMT -0600)
Nampa

Weather History for KMAN - April, 2013

Change the Weather History Date:

Thursday, April 11, 2013

  Actual Average (KBOI) Record (KBOI)
Temperature  
Mean Temperature 49 °F -  
Max Temperature 59 °F 59 °F 82 °F (1934)
Min Temperature 39 °F 35 °F 23 °F (1953)
Degree Days  
Heating Degree Days 16    
Moisture  
Dew Point 26 °F    
Average Humidity 43    
Maximum Humidity 65    
Minimum Humidity 21    
Precipitation  
Precipitation 0.00 in - - ()
Sea Level Pressure  
Sea Level Pressure 30.07 in    
Wind  
Wind Speed 12 mph (NW)    
Max Wind Speed 17 mph    
Max Gust Speed 25 mph    
Visibility 10 miles    
Events      
Averages and records for this station are not official NWS values.
T = Trace of Precipitation, MM = Missing Value Source: NWS Daily Summary

Daily Weather History Graph

Daily Weather History Graph

Search for Another Location

Airport or City:

Trip Planner

Search our weather history database for the weather conditions in past years. The results will help you decide how hot, cold, wet, or windy it might be!

Date:

Astronomy

Apr. 11, 2013 Rise Set
Actual Time 7:09 AM MDT 8:25 PM MDT
Civil Twilight 6:40 AM MDT 8:54 PM MDT
Nautical Twilight 6:04 AM MDT 9:30 PM MDT
Astronomical Twilight 5:27 AM MDT 10:08 PM MDT
Moon 7:41 AM MDT (4/11) 10:07 PM MDT (4/11)
Length of Visible Light 14h 14m
Length of Day
13h 15m
New Moon, 2% of the Moon is Illuminated
Apr 11
New Moon
Apr 18
First Quarter
Apr 25
Full
May 2
Last Quarter
May 9
New

Hourly Weather History & Observations

Time (MDT) Temp. Windchill Dew Point Humidity Pressure Visibility Wind Dir Wind Speed Gust Speed Precip Events Conditions
12:15 AM 48.2 °F - 35.6 °F 62% 30.05 in 10.0 mi NW 10.4 mph 16.1 mph N/A   Clear
12:35 AM 48.2 °F - 33.8 °F 58% 30.05 in 10.0 mi NW 10.4 mph - N/A   Clear
12:55 AM 48.2 °F - 32.0 °F 54% 30.05 in 10.0 mi NW 13.8 mph - N/A   Clear
1:15 AM 48.2 °F - 33.8 °F 58% 30.06 in 10.0 mi NNW 11.5 mph 17.3 mph N/A   Clear
1:35 AM 46.4 °F 41.1 °F 32.0 °F 57% 30.06 in 10.0 mi NW 11.5 mph 18.4 mph N/A   Clear
1:55 AM 46.4 °F 40.4 °F 32.0 °F 57% 30.07 in 10.0 mi NW 13.8 mph 17.3 mph N/A   Clear
2:15 AM 44.6 °F 38.8 °F 32.0 °F 61% 30.07 in 10.0 mi WNW 11.5 mph - N/A   Clear
2:35 AM 44.6 °F 38.4 °F 32.0 °F 61% 30.07 in 10.0 mi WNW 12.7 mph - N/A   Clear
2:55 AM 44.6 °F 39.2 °F 32.0 °F 61% 30.07 in 10.0 mi NW 10.4 mph 19.6 mph N/A   Clear
3:15 AM 44.6 °F 37.8 °F 32.0 °F 61% 30.07 in 10.0 mi NW 15.0 mph 20.7 mph N/A   Clear
3:35 AM 44.6 °F 38.1 °F 30.2 °F 57% 30.07 in 10.0 mi NW 13.8 mph 24.2 mph N/A   Clear
3:55 AM 44.6 °F 37.8 °F 28.4 °F 53% 30.07 in 10.0 mi NW 15.0 mph 23.0 mph N/A   Clear
4:15 AM 44.6 °F 38.1 °F 28.4 °F 53% 30.08 in 10.0 mi NW 13.8 mph 23.0 mph N/A   Clear
4:35 AM 42.8 °F 35.4 °F 28.4 °F 57% 30.09 in 10.0 mi NW 15.0 mph 21.9 mph N/A   Clear
4:55 AM 41.0 °F 32.5 °F 28.4 °F 61% 30.09 in 10.0 mi WNW 17.3 mph - N/A   Clear
5:15 AM 41.0 °F 33.5 °F 28.4 °F 61% 30.10 in 10.0 mi NW 13.8 mph 25.3 mph N/A   Clear
5:35 AM 41.0 °F 34.3 °F 26.6 °F 57% 30.11 in 10.0 mi WNW 11.5 mph - N/A   Clear
5:55 AM 41.0 °F 34.3 °F 28.4 °F 61% 30.11 in 10.0 mi WNW 11.5 mph - N/A   Clear
6:15 AM 41.0 °F 34.3 °F 26.6 °F 57% 30.12 in 10.0 mi NW 11.5 mph - N/A   Clear
6:35 AM 39.2 °F 32.5 °F 28.4 °F 65% 30.12 in 10.0 mi NW 10.4 mph - N/A   Clear
7:15 AM 39.2 °F 32.0 °F 26.6 °F 61% 30.14 in 10.0 mi WNW 11.5 mph - N/A   Clear
7:35 AM 39.2 °F 33.0 °F 26.6 °F 61% 30.15 in 10.0 mi WNW 9.2 mph - N/A   Clear
7:55 AM 41.0 °F 35.2 °F 26.6 °F 57% 30.15 in 10.0 mi WNW 9.2 mph - N/A   Clear
8:15 AM 41.0 °F 35.8 °F 26.6 °F 57% 30.16 in 10.0 mi NW 8.1 mph - N/A   Clear
8:35 AM 41.0 °F 35.8 °F 28.4 °F 61% 30.15 in 10.0 mi NW 8.1 mph - N/A   Clear
8:55 AM 41.0 °F 33.5 °F 26.6 °F 57% 30.15 in 10.0 mi NW 13.8 mph 18.4 mph N/A   Clear
9:15 AM 42.8 °F 35.8 °F 26.6 °F 53% 30.15 in 10.0 mi NW 13.8 mph 19.6 mph N/A   Clear
9:35 AM 44.6 °F 39.7 °F 28.4 °F 53% 30.15 in 10.0 mi NW 9.2 mph - N/A   Clear
9:55 AM 46.4 °F 40.1 °F 26.6 °F 46% 30.15 in 10.0 mi WNW 15.0 mph - N/A   Clear
10:15 AM 46.4 °F 40.1 °F 26.6 °F 46% 30.15 in 10.0 mi WNW 15.0 mph 20.7 mph N/A   Clear
10:55 AM 48.2 °F - 26.6 °F 43% 30.14 in 10.0 mi WNW 15.0 mph 19.6 mph N/A   Clear
11:15 AM 48.2 °F - 26.6 °F 43% 30.14 in 10.0 mi NW 13.8 mph 20.7 mph N/A   Clear
11:35 AM 50.0 °F - 26.6 °F 40% 30.14 in 10.0 mi NW 15.0 mph 20.7 mph N/A   Clear
11:55 AM 50.0 °F - 26.6 °F 40% 30.13 in 10.0 mi WNW 15.0 mph - N/A   Clear
12:15 PM 51.8 °F - 26.6 °F 38% 30.12 in 10.0 mi WNW 12.7 mph 20.7 mph N/A   Clear
12:35 PM 51.8 °F - 24.8 °F 35% 30.11 in 10.0 mi NW 15.0 mph 21.9 mph N/A   Clear
12:55 PM 53.6 °F - 24.8 °F 33% 30.09 in 10.0 mi NNW 16.1 mph 23.0 mph N/A   Clear
1:15 PM 53.6 °F - 24.8 °F 33% 30.08 in 10.0 mi WNW 16.1 mph 20.7 mph N/A   Clear
1:35 PM 55.4 °F - 24.8 °F 31% 30.07 in 10.0 mi North 13.8 mph 19.6 mph N/A   Clear
1:55 PM 55.4 °F - 24.8 °F 31% 30.06 in 10.0 mi NNW 10.4 mph 17.3 mph N/A   Clear
2:15 PM 57.2 °F - 24.8 °F 29% 30.05 in 10.0 mi NNW 15.0 mph 21.9 mph N/A   Clear
2:35 PM 57.2 °F - 23.0 °F 27% 30.04 in 10.0 mi NNW 12.7 mph 19.6 mph N/A   Clear
2:55 PM 57.2 °F - 19.4 °F 23% 30.04 in 10.0 mi NNW 13.8 mph 19.6 mph N/A   Clear
3:15 PM 57.2 °F - 19.4 °F 23% 30.03 in 10.0 mi NW 13.8 mph 17.3 mph N/A   Clear
3:35 PM 57.2 °F - 19.4 °F 23% 30.02 in 10.0 mi NW 13.8 mph 23.0 mph N/A   Clear
3:55 PM 57.2 °F - 19.4 °F 23% 30.02 in 10.0 mi NW 15.0 mph - N/A   Clear
4:15 PM 57.2 °F - 17.6 °F 21% 30.01 in 10.0 mi NW 15.0 mph 21.9 mph N/A   Clear
4:35 PM 59.0 °F - 19.4 °F 22% 30.01 in 10.0 mi NNW 12.7 mph 18.4 mph N/A   Clear
4:55 PM 59.0 °F - 19.4 °F 22% 30.00 in 10.0 mi NNW 12.7 mph 20.7 mph N/A   Clear
5:15 PM 57.2 °F - 19.4 °F 23% 30.00 in 10.0 mi NNW 15.0 mph 20.7 mph N/A   Clear
5:35 PM 57.2 °F - 19.4 °F 23% 30.00 in 10.0 mi North 11.5 mph - N/A   Clear
5:55 PM 59.0 °F - 19.4 °F 22% 29.99 in 10.0 mi North 16.1 mph 19.6 mph N/A   Clear
6:15 PM 59.0 °F - 19.4 °F 22% 29.99 in 10.0 mi North 16.1 mph 19.6 mph N/A   Clear
6:35 PM 57.2 °F - 19.4 °F 23% 29.99 in 10.0 mi North 13.8 mph 19.6 mph N/A   Clear
6:55 PM 57.2 °F - 23.0 °F 27% 29.99 in 10.0 mi North 12.7 mph 18.4 mph N/A   Clear
7:15 PM 57.2 °F - 23.0 °F 27% 29.99 in 10.0 mi NNW 11.5 mph - N/A   Clear
7:35 PM 55.4 °F - 23.0 °F 29% 29.98 in 10.0 mi North 9.2 mph - N/A   Clear
7:55 PM 55.4 °F - 23.0 °F 29% 29.98 in 10.0 mi NNW 9.2 mph - N/A   Clear
8:15 PM 55.4 °F - 23.0 °F 29% 29.99 in 10.0 mi NNW 10.4 mph 16.1 mph N/A   Clear
8:35 PM 53.6 °F - 24.8 °F 33% 29.99 in 10.0 mi NNW 12.7 mph - N/A   Clear
8:55 PM 51.8 °F - 26.6 °F 38% 30.00 in 10.0 mi NNW 11.5 mph 18.4 mph N/A   Clear
9:15 PM 51.8 °F - 26.6 °F 38% 30.01 in 10.0 mi NW 12.7 mph 18.4 mph N/A   Clear
9:35 PM 50.0 °F - 26.6 °F 40% 30.02 in 10.0 mi NNW 10.4 mph - N/A   Clear
9:55 PM 48.2 °F - 26.6 °F 43% 30.03 in 10.0 mi NW 10.4 mph - N/A   Clear
10:15 PM 48.2 °F - 26.6 °F 43% 30.03 in 10.0 mi NW 9.2 mph - N/A   Clear
10:35 PM 46.4 °F 41.1 °F 26.6 °F 46% 30.04 in 10.0 mi WNW 11.5 mph - N/A   Clear
10:55 PM 46.4 °F 41.9 °F 26.6 °F 46% 30.04 in 10.0 mi West 9.2 mph - N/A   Clear
11:15 PM 44.6 °F 39.2 °F 26.6 °F 49% 30.04 in 10.0 mi West 10.4 mph - N/A   Clear
11:35 PM 44.6 °F 40.2 °F 28.4 °F 53% 30.04 in 10.0 mi West 8.1 mph - N/A   Clear
11:55 PM 42.8 °F 38.0 °F 28.4 °F 57% 30.05 in 10.0 mi West 8.1 mph - N/A   Clear